Time;durP1;ratioP1;P1;durP2;ratioP2;P2;SDS_P1;SDS_P2;PMS_P1;PMS_P2;Temp;Humidity;BMP_temperature;BMP_pressure;BME280_temperature;BME280_humidity;BME280_pressure;Samples;Min_cycle;Max_cycle;Signal;HPM_P1;HPM_P2
2021/07/04 00:02:01;;;;;;;8.57;3.80;;;16.90;99.90;;;;;;5100802;28;20259;-79
2021/07/04 00:04:29;;;;;;;6.70;3.30;;;16.90;99.90;;;;;;5096273;28;20222;-79
2021/07/04 00:06:55;;;;;;;9.83;3.50;;;16.90;99.90;;;;;;5102996;28;20233;-79
2021/07/04 00:09:22;;;;;;;6.60;3.30;;;16.80;99.90;;;;;;5098792;28;20259;-79
2021/07/04 00:11:50;;;;;;;9.77;3.53;;;16.80;99.90;;;;;;5101915;28;20305;-80
2021/07/04 00:14:17;;;;;;;6.20;3.33;;;16.80;99.90;;;;;;5102474;28;20239;-79
2021/07/04 00:16:46;;;;;;;7.70;3.63;;;16.80;99.90;;;;;;5105220;28;20226;-79
2021/07/04 00:19:14;;;;;;;10.23;3.40;;;16.80;99.90;;;;;;5110904;28;20221;-79
2021/07/04 00:21:41;;;;;;;5.77;3.40;;;16.70;99.90;;;;;;5097728;28;20279;-79
2021/07/04 00:24:08;;;;;;;8.93;3.93;;;16.70;99.90;;;;;;5096596;28;20202;-79
2021/07/04 00:26:35;;;;;;;8.13;3.60;;;16.70;99.90;;;;;;5094692;28;20233;-79
2021/07/04 00:29:02;;;;;;;7.60;3.67;;;16.70;99.90;;;;;;5093993;28;20678;-80
2021/07/04 00:31:29;;;;;;;7.30;3.60;;;16.70;99.90;;;;;;5093952;28;20303;-79
2021/07/04 00:33:57;;;;;;;8.07;3.60;;;16.70;99.90;;;;;;5094752;28;20229;-80
2021/07/04 00:36:24;;;;;;;9.80;3.90;;;16.80;99.90;;;;;;5100162;28;20292;-80
2021/07/04 00:38:53;;;;;;;9.20;4.00;;;16.80;99.90;;;;;;5114411;28;20189;-80
2021/07/04 00:41:20;;;;;;;9.50;4.00;;;16.80;99.90;;;;;;5109680;28;20282;-80
2021/07/04 00:43:48;;;;;;;7.83;3.80;;;16.70;99.90;;;;;;5100768;28;20230;-79
2021/07/04 00:46:16;;;;;;;8.43;3.67;;;16.70;99.90;;;;;;5105664;28;20194;-80
2021/07/04 00:48:43;;;;;;;8.80;4.30;;;16.70;99.90;;;;;;5112000;28;20240;-79
2021/07/04 00:51:11;;;;;;;10.83;4.07;;;16.70;99.90;;;;;;5112498;28;20221;-80
2021/07/04 00:53:39;;;;;;;9.57;3.73;;;16.70;99.90;;;;;;5093932;28;20229;-80
2021/07/04 00:56:06;;;;;;;11.27;4.57;;;16.70;99.90;;;;;;5092376;28;20281;-79
2021/07/04 00:58:34;;;;;;;11.97;4.07;;;16.70;99.90;;;;;;5094282;28;20226;-80
2021/07/04 01:01:01;;;;;;;10.33;4.40;;;16.70;99.90;;;;;;5094174;28;20194;-79
2021/07/04 01:03:28;;;;;;;10.43;4.13;;;16.70;99.90;;;;;;5094286;28;20233;-80
2021/07/04 01:05:55;;;;;;;10.80;4.13;;;16.70;99.90;;;;;;5108700;28;20251;-80
2021/07/04 01:08:24;;;;;;;9.10;4.20;;;16.70;99.90;;;;;;5110608;28;20255;-79
2021/07/04 01:10:51;;;;;;;9.47;4.47;;;16.70;99.90;;;;;;5098611;28;20257;-79
2021/07/04 01:13:18;;;;;;;8.77;4.00;;;16.60;99.90;;;;;;5103391;28;20206;-80
2021/07/04 01:15:47;;;;;;;13.73;4.20;;;16.60;99.90;;;;;;5102736;28;20252;-79
2021/07/04 01:18:14;;;;;;;8.53;3.70;;;16.60;99.90;;;;;;5100323;28;20191;-79
2021/07/04 01:20:42;;;;;;;10.13;3.90;;;16.60;99.90;;;;;;5101440;28;20218;-79
2021/07/04 01:23:12;;;;;;;9.20;4.00;;;16.60;99.90;;;;;;5104770;28;20216;-79
2021/07/04 01:25:43;;;;;;;8.83;3.70;;;16.60;99.90;;;;;;5102432;28;20682;-79
2021/07/04 01:28:10;;;;;;;14.23;4.40;;;16.60;99.90;;;;;;5108488;28;20190;-79
2021/07/04 01:30:38;;;;;;;7.77;3.83;;;16.60;99.90;;;;;;5104712;28;20708;-79
2021/07/04 01:33:05;;;;;;;13.83;4.57;;;16.60;99.90;;;;;;5104927;27;20280;-79
2021/07/04 01:35:32;;;;;;;9.00;3.90;;;16.60;99.90;;;;;;5102557;28;20602;-80
2021/07/04 01:37:59;;;;;;;12.47;5.10;;;16.60;99.90;;;;;;5096801;28;20318;-79
2021/07/04 01:40:29;;;;;;;14.80;4.57;;;16.60;99.90;;;;;;5110524;28;20280;-80
2021/07/04 01:42:56;;;;;;;12.07;5.13;;;16.60;99.90;;;;;;5114101;28;20193;-79
2021/07/04 01:45:24;;;;;;;9.93;4.63;;;16.60;99.90;;;;;;5104702;28;20247;-80
2021/07/04 01:47:53;;;;;;;12.83;4.90;;;16.60;99.90;;;;;;5107371;28;20289;-80
2021/07/04 01:50:26;;;;;;;9.63;4.43;;;16.60;99.90;;;;;;5104966;28;20259;-79
2021/07/04 01:52:53;;;;;;;10.67;4.83;;;16.50;99.90;;;;;;5103042;28;20238;-79
2021/07/04 01:55:21;;;;;;;13.23;4.80;;;16.50;99.90;;;;;;5094025;28;20202;-79
2021/07/04 01:57:49;;;;;;;13.83;5.03;;;16.50;99.90;;;;;;5101967;28;20268;-79
2021/07/04 02:00:19;;;;;;;13.93;4.80;;;16.50;99.90;;;;;;5106635;28;20255;-79
2021/07/04 02:02:48;;;;;;;11.23;4.57;;;16.50;99.90;;;;;;5102268;28;20658;-79
2021/07/04 02:05:15;;;;;;;13.00;5.20;;;16.50;99.90;;;;;;5104621;28;20229;-79
2021/07/04 02:07:43;;;;;;;9.70;4.77;;;16.50;99.90;;;;;;5095395;28;20741;-79
2021/07/04 02:10:17;;;;;;;13.47;4.80;;;16.50;99.90;;;;;;5101732;28;20631;-79
2021/07/04 02:12:45;;;;;;;12.77;4.87;;;16.50;99.90;;;;;;5095841;28;20300;-79
2021/07/04 02:15:16;;;;;;;9.57;4.70;;;16.50;99.90;;;;;;5093586;28;20289;-80
2021/07/04 02:17:43;;;;;;;9.47;4.60;;;16.50;99.90;;;;;;5108899;28;20230;-79
2021/07/04 02:20:35;;;;;;;10.50;4.80;;;16.40;99.90;;;;;;5112696;28;20198;-79
2021/07/04 02:23:06;;;;;;;14.17;5.10;;;16.40;99.90;;;;;;5094992;28;20226;-79
2021/07/04 02:25:33;;;;;;;13.93;4.60;;;16.40;99.90;;;;;;5106998;28;20288;-80
2021/07/04 02:28:00;;;;;;;8.87;4.93;;;16.40;99.90;;;;;;5095948;28;20199;-79
2021/07/04 02:30:29;;;;;;;9.67;4.53;;;16.40;99.90;;;;;;5108354;28;20226;-79
2021/07/04 02:32:57;;;;;;;9.50;4.77;;;16.40;99.90;;;;;;5104076;28;20588;-79
2021/07/04 02:35:24;;;;;;;15.00;4.53;;;16.40;99.90;;;;;;5108813;28;20617;-79
2021/07/04 02:37:50;;;;;;;14.40;5.17;;;16.40;99.90;;;;;;5106895;28;20225;-79
2021/07/04 02:40:18;;;;;;;10.13;4.80;;;16.30;99.90;;;;;;5094972;28;20232;-79
2021/07/04 02:42:45;;;;;;;12.67;4.77;;;16.30;99.90;;;;;;5107040;28;20191;-79
2021/07/04 02:45:12;;;;;;;14.17;5.30;;;16.40;99.90;;;;;;5097470;28;20232;-79
2021/07/04 02:47:42;;;;;;;9.97;4.27;;;16.40;99.90;;;;;;5104780;28;20677;-79
2021/07/04 02:50:10;;;;;;;10.90;4.60;;;16.30;99.90;;;;;;5101793;28;20245;-79
2021/07/04 02:52:37;;;;;;;12.27;5.00;;;16.30;99.90;;;;;;5108040;28;20308;-79
2021/07/04 02:55:04;;;;;;;13.33;5.33;;;16.30;99.90;;;;;;5111592;28;20229;-79
2021/07/04 02:57:31;;;;;;;12.47;5.10;;;16.40;99.90;;;;;;5108769;28;20276;-79
2021/07/04 02:59:58;;;;;;;8.70;4.67;;;16.30;99.90;;;;;;5100576;28;20890;-79
2021/07/04 03:02:26;;;;;;;8.37;4.43;;;16.40;99.90;;;;;;5103651;28;20225;-79
2021/07/04 03:04:54;;;;;;;7.27;4.80;;;16.30;99.90;;;;;;5102430;28;20278;-79
2021/07/04 03:07:21;;;;;;;9.80;4.83;;;16.30;99.90;;;;;;5098753;28;20225;-79
2021/07/04 03:09:48;;;;;;;11.97;4.97;;;16.30;99.90;;;;;;5099978;28;20232;-79
2021/07/04 03:12:15;;;;;;;10.80;4.77;;;16.30;99.90;;;;;;5099037;28;20301;-79
2021/07/04 03:14:42;;;;;;;11.27;4.73;;;16.30;99.90;;;;;;5095205;28;20697;-80
2021/07/04 03:17:09;;;;;;;12.37;5.13;;;16.20;99.90;;;;;;5106876;28;20237;-79
2021/07/04 03:19:36;;;;;;;9.90;4.77;;;16.20;99.90;;;;;;5096207;28;20202;-78
2021/07/04 03:22:05;;;;;;;9.57;4.83;;;16.20;99.90;;;;;;5095834;28;20524;-79
2021/07/04 03:24:32;;;;;;;10.17;4.87;;;16.20;99.90;;;;;;5099706;28;20228;-79
2021/07/04 03:26:59;;;;;;;10.80;5.07;;;16.20;99.90;;;;;;5107610;28;20351;-79
2021/07/04 03:29:25;;;;;;;13.17;4.97;;;16.20;99.90;;;;;;5092529;28;20682;-79
2021/07/04 03:31:52;;;;;;;9.23;5.20;;;16.20;99.90;;;;;;5091952;28;20268;-79
2021/07/04 03:34:19;;;;;;;12.10;4.80;;;16.20;99.90;;;;;;5097253;28;20229;-80
2021/07/04 03:36:46;;;;;;;12.00;5.10;;;16.10;99.90;;;;;;5091792;28;20230;-79
2021/07/04 03:39:14;;;;;;;12.10;5.43;;;16.20;99.90;;;;;;5091507;28;20225;-79
2021/07/04 03:41:41;;;;;;;11.37;4.63;;;16.20;99.90;;;;;;5091244;28;20669;-79
2021/07/04 03:44:09;;;;;;;10.07;5.63;;;16.10;99.90;;;;;;5091164;28;20614;-79
2021/07/04 03:46:36;;;;;;;14.30;4.77;;;16.20;99.90;;;;;;5095571;28;20194;-79
2021/07/04 03:49:03;;;;;;;10.57;5.27;;;16.20;99.90;;;;;;5092255;28;20343;-79
2021/07/04 03:51:30;;;;;;;12.63;5.23;;;16.20;99.90;;;;;;5103167;28;20229;-79
2021/07/04 03:53:57;;;;;;;13.77;5.10;;;16.10;99.90;;;;;;5100919;28;20226;-79
2021/07/04 03:56:25;;;;;;;13.33;5.53;;;16.20;99.90;;;;;;5092571;28;20357;-79
2021/07/04 03:58:52;;;;;;;11.93;5.17;;;16.10;99.90;;;;;;5102902;28;20261;-79
2021/07/04 04:01:19;;;;;;;12.53;5.13;;;16.20;99.90;;;;;;5090602;28;20233;-79
2021/07/04 04:03:47;;;;;;;13.13;5.70;;;16.10;99.90;;;;;;5090655;28;20627;-79
2021/07/04 04:06:14;;;;;;;13.13;5.50;;;16.20;99.90;;;;;;5090853;28;20230;-79
2021/07/04 04:08:42;;;;;;;15.13;5.90;;;16.20;99.90;;;;;;5090665;28;20194;-79
2021/07/04 04:11:10;;;;;;;12.73;5.40;;;16.20;99.90;;;;;;5090252;28;20580;-79
2021/07/04 04:13:38;;;;;;;10.67;5.53;;;16.20;99.90;;;;;;5090982;28;20301;-79
2021/07/04 04:16:06;;;;;;;9.83;5.27;;;16.20;99.90;;;;;;5090674;28;20860;-80
2021/07/04 04:18:36;;;;;;;15.70;5.47;;;16.20;99.90;;;;;;5102362;28;20202;-79
2021/07/04 04:21:04;;;;;;;10.73;5.30;;;16.20;99.90;;;;;;5106014;28;20222;-79
2021/07/04 04:23:31;;;;;;;10.63;5.70;;;16.30;99.90;;;;;;5093376;28;20191;-79
2021/07/04 04:25:58;;;;;;;12.13;5.43;;;16.20;99.90;;;;;;5106254;28;20281;-79
2021/07/04 04:28:24;;;;;;;14.33;5.70;;;16.30;99.90;;;;;;5111855;28;20306;-79
2021/07/04 04:30:53;;;;;;;10.00;5.40;;;16.20;99.90;;;;;;5099003;28;20216;-79
2021/07/04 04:33:20;;;;;;;8.63;5.00;;;16.30;99.90;;;;;;5103944;28;20257;-79
2021/07/04 04:35:47;;;;;;;10.03;5.27;;;16.30;99.90;;;;;;5103265;28;20682;-79
2021/07/04 04:38:14;;;;;;;11.17;5.17;;;16.30;99.90;;;;;;5095930;28;20282;-79
2021/07/04 04:40:41;;;;;;;9.70;4.73;;;16.30;99.90;;;;;;5101111;28;20256;-80
2021/07/04 04:43:08;;;;;;;12.03;5.33;;;16.30;99.90;;;;;;5098693;28;20430;-79
2021/07/04 04:45:35;;;;;;;10.00;4.73;;;16.30;99.90;;;;;;5101254;28;20241;-80
2021/07/04 04:48:04;;;;;;;11.03;4.93;;;16.40;99.90;;;;;;5103230;28;20230;-80
2021/07/04 04:50:31;;;;;;;10.60;4.83;;;16.40;99.90;;;;;;5103530;28;20202;-79
2021/07/04 04:52:58;;;;;;;16.97;5.20;;;16.40;99.90;;;;;;5106819;28;20268;-79
2021/07/04 04:55:25;;;;;;;11.33;5.00;;;16.40;99.90;;;;;;5112160;28;20278;-79
2021/07/04 04:57:52;;;;;;;12.10;4.87;;;16.40;99.90;;;;;;5097207;28;20322;-79
2021/07/04 05:00:19;;;;;;;9.97;4.63;;;16.40;99.90;;;;;;5107587;27;20233;-79
2021/07/04 05:02:47;;;;;;;10.33;4.90;;;16.40;99.90;;;;;;5100886;28;20686;-79
2021/07/04 05:05:15;;;;;;;12.97;5.30;;;16.40;99.90;;;;;;5095211;28;20230;-79
2021/07/04 05:07:42;;;;;;;14.53;4.47;;;16.40;99.90;;;;;;5096227;28;20234;-80
2021/07/04 05:10:11;;;;;;;12.70;4.90;;;16.50;99.90;;;;;;5112002;28;20223;-79
2021/07/04 05:12:38;;;;;;;11.27;5.23;;;16.50;99.90;;;;;;5101215;28;20297;-80
2021/07/04 05:15:06;;;;;;;10.33;4.90;;;16.50;99.90;;;;;;5105446;28;20285;-79
2021/07/04 05:17:33;;;;;;;12.63;5.07;;;16.50;99.90;;;;;;5096277;28;20202;-79
2021/07/04 05:20:00;;;;;;;10.93;5.10;;;16.50;99.90;;;;;;5097949;28;20291;-79
2021/07/04 05:22:28;;;;;;;9.87;4.77;;;16.50;99.90;;;;;;5105185;28;20301;-79
2021/07/04 05:24:55;;;;;;;9.50;4.83;;;16.50;99.90;;;;;;5103063;28;20285;-78
2021/07/04 05:27:22;;;;;;;9.80;5.07;;;16.50;99.90;;;;;;5104349;28;20309;-79
2021/07/04 05:29:49;;;;;;;9.03;4.70;;;16.40;99.90;;;;;;5097582;27;20217;-79
2021/07/04 05:32:16;;;;;;;11.17;5.00;;;16.50;99.90;;;;;;5094118;28;20745;-79
2021/07/04 05:34:43;;;;;;;11.90;5.20;;;16.50;99.90;;;;;;5098456;28;20222;-79
2021/07/04 05:37:10;;;;;;;11.03;4.90;;;16.40;99.90;;;;;;5102682;28;20190;-79
2021/07/04 05:39:38;;;;;;;11.80;5.60;;;16.40;99.90;;;;;;5103619;28;20225;-79
2021/07/04 05:42:06;;;;;;;10.97;5.23;;;16.40;99.90;;;;;;5095621;28;20198;-79
2021/07/04 05:44:33;;;;;;;12.80;5.17;;;16.40;99.90;;;;;;5112421;28;20240;-80
2021/07/04 05:47:00;;;;;;;12.50;5.77;;;16.40;99.90;;;;;;5096874;28;20195;-79
2021/07/04 05:49:27;;;;;;;11.53;5.27;;;16.40;99.90;;;;;;5104816;28;20756;-79
2021/07/04 05:51:54;;;;;;;12.17;5.37;;;16.40;99.90;;;;;;5110405;28;20581;-80
2021/07/04 05:54:22;;;;;;;8.53;4.67;;;16.40;99.90;;;;;;5102929;28;20236;-79
2021/07/04 05:56:50;;;;;;;10.67;4.80;;;16.40;99.90;;;;;;5104274;28;20741;-79
2021/07/04 05:59:17;;;;;;;11.50;5.17;;;16.50;99.90;;;;;;5105255;28;20309;-79
2021/07/04 06:01:44;;;;;;;10.17;4.73;;;16.40;99.90;;;;;;5092312;28;20277;-79
2021/07/04 06:04:11;;;;;;;10.00;4.70;;;16.40;99.90;;;;;;5091543;28;20214;-79
2021/07/04 06:06:38;;;;;;;9.87;4.40;;;16.40;99.90;;;;;;5092134;28;20222;-79
2021/07/04 06:09:04;;;;;;;7.47;4.43;;;16.50;99.90;;;;;;5092810;28;20251;-79
2021/07/04 06:11:31;;;;;;;11.83;4.30;;;16.50;99.90;;;;;;5091974;28;20963;-79
2021/07/04 06:14:00;;;;;;;9.63;4.07;;;16.50;99.90;;;;;;5092555;28;20218;-81
2021/07/04 06:16:27;;;;;;;6.50;3.90;;;16.40;99.90;;;;;;5108994;28;20284;-80
2021/07/04 06:18:53;;;;;;;7.53;3.70;;;16.40;99.90;;;;;;5104241;28;20226;-79
2021/07/04 06:21:20;;;;;;;6.73;3.47;;;16.50;99.90;;;;;;5103604;28;20253;-80
2021/07/04 06:23:47;;;;;;;5.40;3.13;;;16.50;99.90;;;;;;5096895;28;20603;-80
2021/07/04 06:26:14;;;;;;;6.13;3.20;;;16.40;99.90;;;;;;5106199;28;20282;-79
2021/07/04 06:28:41;;;;;;;4.33;2.73;;;16.40;99.90;;;;;;5093181;28;20639;-79
2021/07/04 06:31:10;;;;;;;7.17;3.10;;;16.40;99.90;;;;;;5094864;28;20248;-80
2021/07/04 06:33:37;;;;;;;3.60;2.10;;;16.30;99.90;;;;;;5092562;28;20258;-80
2021/07/04 06:36:05;;;;;;;4.47;2.47;;;16.30;99.90;;;;;;5094229;28;20230;-79
2021/07/04 06:38:32;;;;;;;4.53;2.60;;;16.30;99.90;;;;;;5098800;28;20297;-79
2021/07/04 06:40:59;;;;;;;4.50;2.50;;;16.30;99.90;;;;;;5100165;28;20276;-79
2021/07/04 06:43:27;;;;;;;5.10;2.60;;;16.30;99.90;;;;;;5103442;28;20622;-80
2021/07/04 06:45:53;;;;;;;5.60;2.70;;;16.40;99.90;;;;;;5097774;28;20199;-79
2021/07/04 06:48:22;;;;;;;4.27;2.37;;;16.50;99.90;;;;;;5106591;28;20222;-79
2021/07/04 06:50:49;;;;;;;3.50;2.13;;;16.70;99.90;;;;;;5105436;28;20308;-79
2021/07/04 06:53:16;;;;;;;3.23;2.30;;;16.90;99.90;;;;;;5101980;28;20241;-79
2021/07/04 06:55:43;;;;;;;4.00;2.30;;;17.10;99.90;;;;;;5099803;28;20199;-80
2021/07/04 06:58:10;;;;;;;4.90;2.50;;;17.20;99.90;;;;;;5106044;28;20264;-82
2021/07/04 07:00:37;;;;;;;3.43;2.07;;;17.20;99.90;;;;;;5099686;28;20776;-82
2021/07/04 07:03:04;;;;;;;2.33;2.07;;;17.50;99.90;;;;;;5102104;28;20287;-83
2021/07/04 07:05:32;;;;;;;4.53;2.13;;;17.70;99.90;;;;;;5098810;28;20230;-83
2021/07/04 07:07:59;;;;;;;2.80;2.20;;;17.80;99.90;;;;;;5101710;28;20229;-83
2021/07/04 07:10:26;;;;;;;5.77;2.23;;;17.60;99.90;;;;;;5107865;28;20229;-84
2021/07/04 07:12:54;;;;;;;4.00;2.33;;;17.70;99.90;;;;;;5095479;28;20837;-84
2021/07/04 07:15:21;;;;;;;4.17;2.07;;;17.70;99.90;;;;;;5101855;28;20626;-84
2021/07/04 07:17:48;;;;;;;3.88;1.98;;;17.80;99.90;;;;;;5101308;28;20563;-84
2021/07/04 07:20:16;;;;;;;2.92;1.63;;;19.30;99.90;;;;;;5108559;28;20197;-84
2021/07/04 07:22:45;;;;;;;3.15;1.63;;;19.70;99.90;;;;;;5099439;28;20218;-83
2021/07/04 07:25:13;;;;;;;3.35;1.20;;;20.60;99.90;;;;;;5104667;28;20229;-83
2021/07/04 07:27:42;;;;;;;2.40;1.35;;;22.10;99.90;;;;;;5098391;28;20202;-83
2021/07/04 07:30:11;;;;;;;3.15;1.23;;;22.50;99.90;;;;;;5109997;28;20201;-83
2021/07/04 07:39:51;;;;;;;3.75;1.50;;;20.30;99.90;;;;;;4985593;28;20239;-81
2021/07/04 07:42:19;;;;;;;3.70;1.85;;;19.60;99.90;;;;;;4991529;28;20209;-82
2021/07/04 07:44:46;;;;;;;6.00;1.95;;;19.70;99.90;;;;;;4984232;28;20678;-82
2021/07/04 07:47:13;;;;;;;4.28;1.90;;;19.40;99.90;;;;;;4995093;28;20291;-83
2021/07/04 07:49:40;;;;;;;5.25;2.25;;;19.40;99.90;;;;;;4988490;28;20235;-82
2021/07/04 07:52:08;;;;;;;7.25;2.40;;;19.30;99.90;;;;;;4988783;28;20204;-83
2021/07/04 07:54:36;;;;;;;6.82;2.28;;;19.00;99.90;;;;;;4987843;28;20739;-82
2021/07/04 07:57:04;;;;;;;5.22;2.10;;;19.00;99.90;;;;;;4988292;28;20261;-82
2021/07/04 07:59:32;;;;;;;6.35;2.17;;;19.10;99.90;;;;;;4987170;28;20201;-82
2021/07/04 08:02:00;;;;;;;6.10;1.98;;;19.00;99.90;;;;;;4987737;28;20902;-83
2021/07/04 08:04:27;;;;;;;5.07;2.08;;;19.40;99.90;;;;;;4987670;28;20256;-83
2021/07/04 08:06:54;;;;;;;2.45;1.70;;;19.60;99.90;;;;;;4991698;28;20256;-83
2021/07/04 08:09:21;;;;;;;4.28;1.80;;;19.60;99.90;;;;;;4988868;28;20264;-82
2021/07/04 08:11:50;;;;;;;4.20;1.80;;;20.00;99.90;;;;;;5020259;28;20638;-82
2021/07/04 08:14:17;;;;;;;4.10;1.70;;;20.70;99.90;;;;;;5113175;28;20274;-82
2021/07/04 08:16:44;;;;;;;5.53;2.13;;;20.40;99.90;;;;;;5112760;28;20202;-82
2021/07/04 08:19:10;;;;;;;7.88;2.53;;;19.90;99.90;;;;;;5115462;28;20597;-82
2021/07/04 08:21:37;;;;;;;5.35;2.20;;;19.70;99.90;;;;;;5101237;28;20242;-81
2021/07/04 08:24:05;;;;;;;4.85;2.08;;;19.50;99.90;;;;;;5103410;28;20229;-81
2021/07/04 08:26:32;;;;;;;5.18;2.30;;;19.50;99.90;;;;;;5095848;28;20219;-82
2021/07/04 08:29:01;;;;;;;4.72;2.30;;;19.30;99.90;;;;;;5105249;28;20217;-82
2021/07/04 08:31:28;;;;;;;5.65;2.25;;;19.50;99.90;;;;;;5111610;28;20251;-83
2021/07/04 08:33:55;;;;;;;6.03;2.45;;;19.60;99.90;;;;;;5102580;28;20663;-82
2021/07/04 08:36:25;;;;;;;4.88;2.25;;;19.90;99.90;;;;;;5109510;28;20287;-82
2021/07/04 08:38:52;;;;;;;4.88;1.98;;;20.10;99.90;;;;;;5095598;28;20209;-82
2021/07/04 08:41:19;;;;;;;5.30;2.40;;;19.70;99.90;;;;;;5105229;28;20202;-83
2021/07/04 08:43:46;;;;;;;4.75;2.15;;;20.10;99.90;;;;;;5100474;28;20695;-82
2021/07/04 08:46:15;;;;;;;5.25;2.45;;;21.00;99.90;;;;;;5097591;28;20237;-82
2021/07/04 08:48:42;;;;;;;4.05;2.20;;;21.50;99.90;;;;;;5103316;28;20195;-82
2021/07/04 08:51:10;;;;;;;6.22;2.30;;;21.70;99.90;;;;;;5106785;28;20289;-82
2021/07/04 08:53:38;;;;;;;5.55;2.00;;;20.40;99.90;;;;;;5105036;28;20253;-84
2021/07/04 08:56:06;;;;;;;4.90;2.10;;;20.00;99.90;;;;;;5099178;28;20242;-83
2021/07/04 08:59:09;;;;;;;6.68;2.20;;;19.90;99.90;;;;;;5110305;28;20308;-84
2021/07/04 09:01:47;;;;;;;4.50;2.10;;;20.10;99.90;;;;;;5098195;28;20221;-82
2021/07/04 09:04:18;;;;;;;7.05;2.45;;;20.20;99.90;;;;;;5102614;28;20277;-83
2021/07/04 09:06:47;;;;;;;6.05;1.98;;;20.70;99.90;;;;;;5110141;28;20333;-83
2021/07/04 09:09:15;;;;;;;4.90;1.92;;;20.90;99.90;;;;;;5110108;28;20661;-83
2021/07/04 09:11:55;;;;;;;4.28;2.03;;;21.20;99.90;;;;;;5105928;28;20305;-83
2021/07/04 09:14:28;;;;;;;4.25;1.75;;;22.10;99.90;;;;;;5105527;28;20320;-84
2021/07/04 09:16:56;;;;;;;5.80;2.33;;;22.90;99.90;;;;;;5100056;28;20215;-84
2021/07/04 09:19:24;;;;;;;5.00;1.65;;;22.90;99.90;;;;;;5103099;28;20233;-84
2021/07/04 09:21:59;;;;;;;3.83;2.05;;;23.00;99.90;;;;;;5103446;28;20256;-83
2021/07/04 09:24:29;;;;;;;4.65;1.98;;;22.50;99.90;;;;;;5113639;27;20261;-83
2021/07/04 09:26:56;;;;;;;5.18;1.90;;;21.80;99.90;;;;;;5107977;28;20699;-83
2021/07/04 09:29:45;;;;;;;6.20;2.30;;;21.00;99.90;;;;;;5106041;28;20222;-83
2021/07/04 09:32:19;;;;;;;4.68;2.15;;;20.40;99.90;;;;;;5101387;28;20607;-81
2021/07/04 09:35:01;;;;;;;4.07;2.00;;;20.40;99.90;;;;;;5104766;28;20738;-83
2021/07/04 09:37:37;;;;;;;3.00;2.28;;;20.40;99.90;;;;;;5097923;28;20197;-83
2021/07/04 09:40:20;;;;;;;4.85;1.92;;;20.10;99.90;;;;;;5107614;27;20232;-82
2021/07/04 09:42:59;;;;;;;5.00;1.90;;;20.40;99.90;;;;;;5112832;28;20204;-85
2021/07/04 09:45:28;;;;;;;5.03;1.58;;;22.30;99.90;;;;;;5095416;28;20643;-83
2021/07/04 09:47:58;;;;;;;4.50;1.88;;;23.80;99.90;;;;;;5108514;28;20198;-85
2021/07/04 09:50:27;;;;;;;2.50;1.60;;;23.90;99.90;;;;;;5108914;28;20643;-83
2021/07/04 09:52:59;;;;;;;4.22;1.95;;;24.20;99.90;;;;;;5108854;28;20254;-84
2021/07/04 09:55:27;;;;;;;3.00;1.63;;;24.90;99.90;;;;;;5108172;27;20309;-85
2021/07/04 09:57:57;;;;;;;2.88;1.60;;;25.50;99.90;;;;;;5109034;28;20278;-86
2021/07/04 10:00:26;;;;;;;2.53;1.20;;;25.90;99.90;;;;;;5106055;28;20222;-85
2021/07/04 10:03:16;;;;;;;2.63;1.40;;;25.30;99.90;;;;;;5096028;28;20261;-82
2021/07/04 10:05:45;;;;;;;5.40;2.92;;;24.60;99.90;;;;;;5105841;28;20196;-82
2021/07/04 10:08:24;;;;;;;4.15;2.75;;;24.00;99.90;;;;;;5104560;28;20226;-80
2021/07/04 10:10:52;;;;;;;5.18;2.90;;;23.30;99.90;;;;;;5109298;28;20687;-80
2021/07/04 10:13:19;;;;;;;3.53;1.92;;;22.20;99.90;;;;;;5105727;28;20230;-80
2021/07/04 10:15:47;;;;;;;5.63;2.10;;;20.40;99.90;;;;;;5102308;28;20238;-79
2021/07/04 10:18:17;;;;;;;4.03;1.70;;;19.50;99.90;;;;;;5105148;28;20202;-79
2021/07/04 10:20:45;;;;;;;2.97;1.70;;;18.80;99.90;;;;;;5101492;28;20226;-78
2021/07/04 10:23:14;;;;;;;3.40;1.90;;;18.60;99.90;;;;;;5101525;28;20669;-78
2021/07/04 10:25:42;;;;;;;2.92;1.40;;;18.90;99.90;;;;;;5104366;28;20295;-78
2021/07/04 10:28:11;;;;;;;1.45;0.90;;;19.40;99.90;;;;;;5100805;28;20230;-79
2021/07/04 10:30:38;;;;;;;2.42;1.10;;;19.90;99.90;;;;;;5103318;28;20202;-79
2021/07/04 10:33:07;;;;;;;2.95;1.30;;;20.80;99.90;;;;;;5107774;28;20240;-79
2021/07/04 10:35:49;;;;;;;2.70;1.15;;;21.70;99.90;;;;;;5093380;28;20253;-79
2021/07/04 10:38:17;;;;;;;3.83;1.60;;;21.60;99.90;;;;;;5104826;28;20251;-79
2021/07/04 10:40:44;;;;;;;2.35;1.15;;;21.30;99.90;;;;;;5100611;28;20234;-79
2021/07/04 10:44:04;;;;;;;3.50;1.20;;;21.00;99.90;;;;;;5102285;28;20289;-79
2021/07/04 10:47:09;;;;;;;2.17;1.02;;;20.60;99.90;;;;;;5079919;28;20244;-79
2021/07/04 10:49:48;;;;;;;2.97;1.40;;;20.80;99.90;;;;;;5073675;28;20285;-79
2021/07/04 10:52:24;;;;;;;2.78;1.42;;;20.90;99.90;;;;;;5079342;28;20617;-79
2021/07/04 10:54:58;;;;;;;3.63;1.42;;;21.20;99.90;;;;;;5070384;28;20355;-79
2021/07/04 10:57:32;;;;;;;2.90;2.10;;;21.40;99.90;;;;;;5074209;28;20194;-79
2021/07/04 11:00:27;;;;;;;5.63;3.45;;;21.40;99.90;;;;;;5076242;28;20199;-79
2021/07/04 11:02:57;;;;;;;4.25;1.60;;;20.80;99.90;;;;;;5083539;28;20207;-79
2021/07/04 11:05:47;;;;;;;3.13;1.48;;;19.90;99.90;;;;;;5072570;28;20195;-79
2021/07/04 11:08:17;;;;;;;3.20;1.50;;;19.70;99.90;;;;;;5074123;28;20276;-79
2021/07/04 11:11:10;;;;;;;2.70;1.33;;;20.10;99.90;;;;;;5080418;28;20199;-79
2021/07/04 11:13:49;;;;;;;1.58;1.10;;;20.30;99.90;;;;;;5089513;28;20198;-79
2021/07/04 11:16:25;;;;;;;2.22;0.90;;;21.40;99.90;;;;;;5081731;28;20205;-79
2021/07/04 11:18:55;;;;;;;1.40;0.80;;;23.20;99.90;;;;;;5092775;28;20235;-79
2021/07/04 11:21:24;;;;;;;2.63;0.95;;;24.60;99.90;;;;;;5091812;28;20271;-79
2021/07/04 11:24:18;;;;;;;2.63;0.77;;;25.10;99.90;;;;;;5092137;28;20327;-79
2021/07/04 11:27:27;;;;;;;2.45;0.90;;;25.60;99.90;;;;;;5104890;28;20225;-79
2021/07/04 11:30:27;;;;;;;2.75;0.90;;;26.50;99.90;;;;;;5111945;28;20577;-80
2021/07/04 11:33:25;;;;;;;4.68;0.70;;;26.20;99.90;;;;;;5091670;28;20301;-80
2021/07/04 11:35:52;;;;;;;2.80;0.70;;;25.40;99.90;;;;;;5092575;28;21559;-80
2021/07/04 11:38:21;;;;;;;1.83;0.70;;;26.00;99.90;;;;;;5099441;28;20229;-79
2021/07/04 11:40:53;;;;;;;1.77;0.70;;;25.90;99.90;;;;;;5108611;28;20697;-80
2021/07/04 11:43:22;;;;;;;2.42;0.82;;;26.60;99.90;;;;;;5108074;28;20233;-79
2021/07/04 11:45:51;;;;;;;2.85;0.82;;;25.50;99.90;;;;;;5104212;28;20239;-79
2021/07/04 11:48:18;;;;;;;1.98;0.80;;;24.80;99.90;;;;;;5102778;28;20232;-80
2021/07/04 11:50:47;;;;;;;2.45;0.82;;;25.30;99.90;;;;;;5103649;28;20233;-80
2021/07/04 11:53:14;;;;;;;2.67;0.80;;;26.20;99.90;;;;;;5103341;28;20252;-80
2021/07/04 11:56:03;;;;;;;2.28;0.80;;;26.10;99.90;;;;;;5110818;28;20987;-80
2021/07/04 11:58:32;;;;;;;1.70;0.80;;;26.00;99.90;;;;;;5097130;28;20230;-80
2021/07/04 12:00:59;;;;;;;2.85;0.80;;;26.60;99.90;;;;;;5105071;28;20573;-80
2021/07/04 12:03:27;;;;;;;1.77;0.80;;;27.00;99.90;;;;;;5103180;28;20229;-79
2021/07/04 12:06:05;;;;;;;3.38;0.80;;;25.00;99.90;;;;;;5095234;28;20790;-79
2021/07/04 12:08:57;;;;;;;2.65;0.70;;;23.90;99.90;;;;;;5098393;28;20199;-79
2021/07/04 12:11:43;;;;;;;3.45;0.80;;;25.30;99.90;;;;;;5094220;28;20285;-80
2021/07/04 12:14:28;;;;;;;2.60;0.90;;;26.10;99.90;;;;;;5094119;28;20761;-79
2021/07/04 12:16:56;;;;;;;4.47;1.00;;;24.80;99.90;;;;;;5096975;28;20190;-80
2021/07/04 12:19:32;;;;;;;1.30;0.77;;;24.50;99.90;;;;;;5101162;27;20231;-80
2021/07/04 12:22:01;;;;;;;4.13;0.88;;;25.10;99.90;;;;;;5110231;28;20225;-80
2021/07/04 12:24:33;;;;;;;2.70;0.80;;;24.10;99.90;;;;;;5100135;28;20225;-80
2021/07/04 12:27:02;;;;;;;2.63;0.70;;;24.50;99.90;;;;;;5097934;28;20206;-80
2021/07/04 12:29:29;;;;;;;1.63;0.80;;;25.40;99.90;;;;;;5108906;28;20205;-80
2021/07/04 12:32:02;;;;;;;2.58;1.05;;;27.10;99.90;;;;;;5106244;28;20321;-80
2021/07/04 12:34:30;;;;;;;1.27;0.70;;;26.10;99.90;;;;;;5102620;28;20218;-80
2021/07/04 12:36:57;;;;;;;2.33;1.02;;;26.20;99.90;;;;;;5107264;28;20575;-80
2021/07/04 12:39:30;;;;;;;1.55;0.90;;;25.00;99.90;;;;;;5101729;28;20260;-80
2021/07/04 12:41:57;;;;;;;3.45;1.13;;;24.20;99.90;;;;;;5102676;28;20194;-80
2021/07/04 12:44:26;;;;;;;3.08;0.93;;;24.00;99.90;;;;;;5102128;28;20233;-80
2021/07/04 12:46:53;;;;;;;2.63;0.95;;;25.60;99.90;;;;;;5101131;28;20247;-80
2021/07/04 12:49:20;;;;;;;3.72;1.08;;;26.50;99.90;;;;;;5103200;28;20243;-80
2021/07/04 12:51:47;;;;;;;1.35;0.80;;;26.70;99.90;;;;;;5108838;28;20190;-80
2021/07/04 12:54:22;;;;;;;2.10;0.68;;;26.50;99.90;;;;;;5103080;27;20281;-80
2021/07/04 12:56:50;;;;;;;2.83;1.02;;;27.10;99.90;;;;;;5103447;28;20220;-80
2021/07/04 12:59:26;;;;;;;1.67;0.80;;;27.60;99.90;;;;;;5106111;28;20344;-81
2021/07/04 13:01:56;;;;;;;2.53;0.82;;;26.30;99.90;;;;;;5100501;27;20305;-80
2021/07/04 13:04:23;;;;;;;4.10;0.90;;;25.10;99.90;;;;;;5105420;28;20292;-80